Bear River, Canada
Current Conditions -  °F | °C
As of 7:00 PM on Thursday 27 Nov 2014 (Local Time) from CYZX Reporting Station
Hail Hail  
Wind Chill: 23°   Ceiling: 2800
Heat Index: 32°   Visibility: 12mi
Dew Point: 27°   Wind: 12mph
Humidity: 80%   Direction: 330°NNW
Pressure: 29.91"   Gusts: 18mph
Location:  44.57°N, 65.63°W
Report Text: CYZX 272300Z 33010G16KT 12SM -SHGS OVC028 00/M03 A2991 RMK SC8 WNDY HILL 35011G18KT SLP130
Loading
Personal Weather Stations






























Interactive Weather Map New forecast layout! Learn more

10-Day Weather Forecast

Advertisements
Track Severe Weather on mobile